createdAt,value
2022-11-12T00:01:45.540Z,10.12
2022-11-12T00:03:37.276Z,10.14
2022-11-12T00:05:29.427Z,10.11
2022-11-12T00:07:22.501Z,10.14
2022-11-12T00:09:14.771Z,10.16
2022-11-12T00:11:07.407Z,10.17
2022-11-12T00:12:58.449Z,10.24
2022-11-12T00:14:50.211Z,10.26
2022-11-12T00:16:42.231Z,10.26
2022-11-12T00:18:33.582Z,10.22
2022-11-12T00:20:25.795Z,10.28
2022-11-12T00:22:17.783Z,10.32
2022-11-12T00:24:11.082Z,10.36
2022-11-12T00:26:03.697Z,10.39
2022-11-12T00:27:55.741Z,10.45
2022-11-12T00:29:47.498Z,10.44
2022-11-12T00:31:39.758Z,10.45
2022-11-12T00:33:31.438Z,10.44
2022-11-12T00:35:22.813Z,10.43
2022-11-12T00:37:14.793Z,10.45
2022-11-12T00:39:06.643Z,10.40
2022-11-12T00:41:02.005Z,10.32
2022-11-12T00:42:54.585Z,10.37
2022-11-12T00:44:46.212Z,10.36
2022-11-12T00:46:37.622Z,10.33
2022-11-12T00:48:29.480Z,10.33
2022-11-12T00:50:21.059Z,10.31
2022-11-12T00:52:12.829Z,10.24
2022-11-12T00:54:05.544Z,10.26
2022-11-12T00:56:03.806Z,10.27
2022-11-12T00:57:55.910Z,10.22
2022-11-12T00:59:47.912Z,10.21
2022-11-12T01:01:40.516Z,10.18
2022-11-12T01:03:32.419Z,10.19
2022-11-12T01:05:24.612Z,10.22
2022-11-12T01:07:17.050Z,10.27
2022-11-12T01:09:09.208Z,10.27
2022-11-12T01:11:09.376Z,10.22
2022-11-12T01:13:01.067Z,10.19
2022-11-12T01:14:52.864Z,10.21
2022-11-12T01:16:44.921Z,10.20
2022-11-12T01:18:36.771Z,10.18
2022-11-12T01:20:28.735Z,10.17
2022-11-12T01:22:20.825Z,10.18
2022-11-12T01:24:13.492Z,10.15
2022-11-12T01:26:07.701Z,10.17
2022-11-12T01:27:59.905Z,10.20
2022-11-12T01:29:51.408Z,10.21
2022-11-12T01:31:43.492Z,10.20
2022-11-12T01:33:35.408Z,10.20
2022-11-12T01:35:27.253Z,10.18
2022-11-12T01:37:19.082Z,10.17
2022-11-12T01:39:11.423Z,10.14
2022-11-12T01:41:03.604Z,10.14
2022-11-12T01:42:56.812Z,10.14
2022-11-12T01:44:48.725Z,10.11
2022-11-12T01:46:57.341Z,10.12
2022-11-12T01:48:53.483Z,10.03
2022-11-12T01:50:45.958Z,10.06
2022-11-12T01:52:43.883Z,10.07
2022-11-12T01:54:36.247Z,10.13
2022-11-12T01:56:30.423Z,10.11
2022-11-12T01:58:27.232Z,10.16
2022-11-12T02:00:19.845Z,10.19
2022-11-12T02:02:12.349Z,10.25
2022-11-12T02:04:04.445Z,10.31
2022-11-12T02:06:00.974Z,10.31
2022-11-12T02:07:54.652Z,10.31
2022-11-12T02:09:46.404Z,10.29
2022-11-12T02:11:38.362Z,10.26
2022-11-12T02:13:49.333Z,10.19
2022-11-12T02:15:42.415Z,10.22
2022-11-12T02:17:35.261Z,10.17
2022-11-12T02:19:27.382Z,10.15
2022-11-12T02:21:21.158Z,10.17
2022-11-12T02:23:12.858Z,10.19
2022-11-12T02:25:04.664Z,10.23
2022-11-12T02:26:57.324Z,10.20
2022-11-12T02:28:48.974Z,10.25
2022-11-12T02:30:43.578Z,10.22
2022-11-12T02:32:35.721Z,10.22
2022-11-12T02:34:27.244Z,10.22
2022-11-12T02:36:19.432Z,10.24
2022-11-12T02:38:12.707Z,10.24
2022-11-12T02:40:05.059Z,10.24
2022-11-12T02:41:56.921Z,10.20
2022-11-12T02:43:48.520Z,10.18
2022-11-12T02:45:40.277Z,10.23
2022-11-12T02:47:32.197Z,10.18
2022-11-12T02:49:24.275Z,10.20
2022-11-12T02:51:16.443Z,10.25
2022-11-12T02:53:08.425Z,10.24
2022-11-12T02:55:02.109Z,10.23
2022-11-12T02:56:53.503Z,10.27
2022-11-12T02:58:45.264Z,10.23
2022-11-12T03:00:37.200Z,10.18
2022-11-12T03:02:29.198Z,10.20
2022-11-12T03:04:20.928Z,10.26
2022-11-12T03:06:11.827Z,10.30
2022-11-12T03:08:06.586Z,10.31
2022-11-12T03:09:58.545Z,10.32
2022-11-12T03:11:51.974Z,10.31
2022-11-12T03:13:43.893Z,10.26
2022-11-12T03:15:35.687Z,10.31
2022-11-12T03:17:27.729Z,10.28
2022-11-12T03:19:19.890Z,10.26
2022-11-12T03:21:12.133Z,10.25
2022-11-12T03:23:05.358Z,10.25
2022-11-12T03:24:56.707Z,10.24
2022-11-12T03:26:48.472Z,10.22
2022-11-12T03:28:41.561Z,10.25
2022-11-12T03:30:36.088Z,10.23
2022-11-12T03:32:27.798Z,10.24
2022-11-12T03:34:19.866Z,10.21
2022-11-12T03:36:12.101Z,10.20
2022-11-12T03:38:05.775Z,10.23
2022-11-12T03:39:57.369Z,10.23
2022-11-12T03:41:49.428Z,10.21
2022-11-12T03:43:42.732Z,10.19
2022-11-12T03:45:34.684Z,10.24
2022-11-12T03:47:26.623Z,10.21
2022-11-12T03:49:18.639Z,10.17
2022-11-12T03:51:12.275Z,10.15
2022-11-12T03:53:04.170Z,10.14
2022-11-12T03:54:56.261Z,10.08
2022-11-12T03:56:47.966Z,10.12
2022-11-12T03:58:39.707Z,10.10
2022-11-12T04:00:33.569Z,10.11
2022-11-12T04:02:26.706Z,10.10
2022-11-12T04:04:18.526Z,10.11
2022-11-12T04:06:27.684Z,10.06
2022-11-12T04:08:38.666Z,10.05
2022-11-12T04:10:31.228Z,10.07
2022-11-12T04:12:40.250Z,10.06
2022-11-12T04:14:32.542Z,10.06
2022-11-12T04:16:43.393Z,10.03
2022-11-12T04:18:52.701Z,10.05
2022-11-12T04:21:00.967Z,10.04
2022-11-12T04:22:52.978Z,10.03
2022-11-12T04:25:01.941Z,10.03
2022-11-12T04:26:53.804Z,10.04
2022-11-12T04:29:06.143Z,10.03
2022-11-12T04:30:56.750Z,10.07
2022-11-12T04:32:52.992Z,10.10
2022-11-12T04:34:43.731Z,10.10
2022-11-12T04:36:35.671Z,10.11
2022-11-12T04:38:28.419Z,10.11
2022-11-12T04:40:39.554Z,10.09
2022-11-12T04:42:45.430Z,10.02
2022-11-12T04:44:54.757Z,9.89
2022-11-12T04:46:46.540Z,9.82
2022-11-12T04:48:40.252Z,9.81
2022-11-12T04:50:32.376Z,9.81
2022-11-12T04:52:23.247Z,9.80
2022-11-12T04:54:15.036Z,9.79
2022-11-12T04:56:06.948Z,9.80
2022-11-12T04:58:00.825Z,9.76
2022-11-12T04:59:53.008Z,9.80
2022-11-12T05:01:44.000Z,9.80
2022-11-12T05:03:36.054Z,9.80
2022-11-12T05:05:33.631Z,9.81
2022-11-12T05:07:26.224Z,9.81
2022-11-12T05:09:17.028Z,9.84
2022-11-12T05:11:12.788Z,9.84
2022-11-12T05:13:04.893Z,9.86
2022-11-12T05:14:56.771Z,9.87
2022-11-12T05:16:48.234Z,9.89
2022-11-12T05:18:40.437Z,9.87
2022-11-12T05:20:33.301Z,9.91
2022-11-12T05:22:42.809Z,9.94
2022-11-12T05:24:42.790Z,9.94
2022-11-12T05:26:34.453Z,9.94
2022-11-12T05:28:26.551Z,9.98
2022-11-12T05:30:18.403Z,9.93
2022-11-12T05:32:12.664Z,10.04
2022-11-12T05:34:04.865Z,10.07
2022-11-12T05:35:58.880Z,10.08
2022-11-12T05:37:50.742Z,10.04
2022-11-12T05:39:42.604Z,10.04
2022-11-12T05:41:51.371Z,9.98
2022-11-12T05:43:46.201Z,10.02
2022-11-12T05:45:38.016Z,10.01
2022-11-12T05:47:30.213Z,9.97
2022-11-12T05:49:22.104Z,9.94
2022-11-12T05:51:15.019Z,9.90
2022-11-12T05:53:06.904Z,9.85
2022-11-12T05:54:58.393Z,9.92
2022-11-12T05:56:53.074Z,9.94
2022-11-12T05:58:43.639Z,10.01
2022-11-12T06:00:39.059Z,10.04
2022-11-12T06:02:31.504Z,10.06
2022-11-12T06:04:23.438Z,10.08
2022-11-12T06:06:16.749Z,10.09
2022-11-12T06:08:08.466Z,10.12
2022-11-12T06:10:00.651Z,10.10
2022-11-12T06:11:52.566Z,10.09
2022-11-12T06:13:44.530Z,10.13
2022-11-12T06:15:39.322Z,10.10
2022-11-12T06:17:31.572Z,10.21
2022-11-12T06:19:23.719Z,10.22
2022-11-12T06:21:27.791Z,10.30
2022-11-12T06:23:19.770Z,10.26
2022-11-12T06:25:11.440Z,10.23
2022-11-12T06:27:03.789Z,10.20
2022-11-12T06:28:56.131Z,10.19
2022-11-12T06:30:50.100Z,10.21
2022-11-12T06:32:42.192Z,10.17
2022-11-12T06:34:33.848Z,10.19
2022-11-12T06:36:27.924Z,10.22
2022-11-12T06:38:19.067Z,10.25
2022-11-12T06:40:11.310Z,10.27
2022-11-12T06:42:04.070Z,10.33
2022-11-12T06:43:56.164Z,10.31
2022-11-12T06:45:47.280Z,10.37
2022-11-12T06:47:39.217Z,10.39
2022-11-12T06:49:31.169Z,10.45
2022-11-12T06:51:23.146Z,10.39
2022-11-12T06:53:16.243Z,10.45
2022-11-12T06:55:09.579Z,10.41
2022-11-12T06:57:01.245Z,10.45
2022-11-12T06:58:52.933Z,10.40
2022-11-12T07:00:44.308Z,10.42
2022-11-12T07:02:36.266Z,10.46
2022-11-12T07:04:28.132Z,10.53
2022-11-12T07:06:20.852Z,10.55
2022-11-12T07:08:13.048Z,10.60
2022-11-12T07:10:06.986Z,10.62
2022-11-12T07:11:58.859Z,10.69
2022-11-12T07:13:50.870Z,10.71
2022-11-12T07:15:42.453Z,10.70
2022-11-12T07:17:34.110Z,10.61
2022-11-12T07:19:25.629Z,10.51
2022-11-12T07:21:20.036Z,10.51
2022-11-12T07:23:11.832Z,10.39
2022-11-12T07:25:05.716Z,10.38
2022-11-12T07:26:57.463Z,10.42
2022-11-12T07:28:50.338Z,10.43
2022-11-12T07:30:42.359Z,10.42
2022-11-12T07:32:38.498Z,10.38
2022-11-12T07:34:34.341Z,10.31
2022-11-12T07:36:26.164Z,10.30
2022-11-12T07:38:17.979Z,10.38
2022-11-12T07:40:12.578Z,10.49
2022-11-12T07:42:04.563Z,10.61
2022-11-12T07:43:56.283Z,10.63
2022-11-12T07:45:48.674Z,10.72
2022-11-12T07:47:40.387Z,10.67
2022-11-12T07:49:32.134Z,10.64
2022-11-12T07:51:25.577Z,10.74
2022-11-12T07:53:17.358Z,10.74
2022-11-12T07:55:11.120Z,10.79
2022-11-12T07:57:03.118Z,10.82
2022-11-12T07:58:54.725Z,10.80
2022-11-12T08:00:46.671Z,10.82
2022-11-12T08:02:38.483Z,10.79
2022-11-12T08:04:30.443Z,10.81
2022-11-12T08:06:22.311Z,10.84
2022-11-12T08:08:14.075Z,10.88
2022-11-12T08:10:07.277Z,10.96
2022-11-12T08:12:00.819Z,10.95
2022-11-12T08:13:53.037Z,10.96
2022-11-12T08:15:49.475Z,10.96
2022-11-12T08:17:43.937Z,10.93
2022-11-12T08:19:35.775Z,10.99
2022-11-12T08:21:27.395Z,11.05
2022-11-12T08:23:19.465Z,11.10
2022-11-12T08:25:11.715Z,11.11
2022-11-12T08:27:04.963Z,11.16
2022-11-12T08:28:56.728Z,11.18
2022-11-12T08:30:48.668Z,11.20
2022-11-12T08:32:40.199Z,11.27
2022-11-12T08:34:31.964Z,11.35
2022-11-12T08:36:23.447Z,11.40
2022-11-12T08:38:15.206Z,11.45
2022-11-12T08:40:08.263Z,11.49
2022-11-12T08:42:00.395Z,11.57
2022-11-12T08:43:53.924Z,11.64
2022-11-12T08:45:46.251Z,11.69
2022-11-12T08:47:38.325Z,11.73
2022-11-12T08:49:30.263Z,11.78
2022-11-12T08:51:22.084Z,11.67
2022-11-12T08:53:15.015Z,11.69
2022-11-12T08:55:07.865Z,11.67
2022-11-12T08:56:59.630Z,11.69
2022-11-12T08:58:51.286Z,11.68
2022-11-12T09:00:46.404Z,11.68
2022-11-12T09:02:38.692Z,11.69
2022-11-12T09:04:30.112Z,11.75
2022-11-12T09:06:21.841Z,11.77
2022-11-12T09:08:16.066Z,11.81
2022-11-12T09:10:09.277Z,11.83
2022-11-12T09:12:04.572Z,11.90
2022-11-12T09:14:00.263Z,11.90
2022-11-12T09:15:53.748Z,11.93
2022-11-12T09:17:48.027Z,11.90
2022-11-12T09:19:42.968Z,11.81
2022-11-12T09:21:35.556Z,11.80
2022-11-12T09:23:27.515Z,11.73
2022-11-12T09:25:19.481Z,11.89
2022-11-12T09:27:11.100Z,11.91
2022-11-12T09:29:03.127Z,11.94
2022-11-12T09:30:56.889Z,12.03
2022-11-12T09:32:48.550Z,12.03
2022-11-12T09:34:40.225Z,12.04
2022-11-12T09:36:35.857Z,12.06
2022-11-12T09:38:30.973Z,12.11
2022-11-12T09:40:25.668Z,12.16
2022-11-12T09:42:21.085Z,12.24
2022-11-12T09:44:16.917Z,12.33
2022-11-12T09:46:28.536Z,12.34
2022-11-12T09:48:26.715Z,12.36
2022-11-12T09:50:23.189Z,12.39
2022-11-12T09:52:20.453Z,12.41
2022-11-12T09:54:23.927Z,12.39
2022-11-12T09:56:19.533Z,12.40
2022-11-12T09:58:13.547Z,12.44
2022-11-12T10:00:12.546Z,12.42
2022-11-12T10:02:17.586Z,12.55
2022-11-12T10:04:28.354Z,12.59
2022-11-12T10:06:23.780Z,12.56
2022-11-12T10:08:38.941Z,12.50
2022-11-12T10:10:39.507Z,12.50
2022-11-12T10:12:44.696Z,12.58
2022-11-12T10:14:52.752Z,12.50
2022-11-12T10:16:55.303Z,12.57
2022-11-12T10:19:04.095Z,12.67
2022-11-12T10:21:00.349Z,12.57
2022-11-12T10:23:08.411Z,12.58
2022-11-12T10:25:11.805Z,12.61
2022-11-12T10:27:12.902Z,12.62
2022-11-12T10:29:15.464Z,12.62
2022-11-12T10:31:12.958Z,12.61
2022-11-12T10:33:04.937Z,12.58
2022-11-12T10:34:58.380Z,12.57
2022-11-12T10:36:55.629Z,12.55
2022-11-12T10:38:49.768Z,12.53
2022-11-12T10:40:43.537Z,12.47
2022-11-12T10:42:35.384Z,12.44
2022-11-12T10:44:28.011Z,12.34
2022-11-12T10:46:21.193Z,12.19
2022-11-12T10:48:27.336Z,12.15
2022-11-12T10:50:29.956Z,12.10
2022-11-12T10:52:24.691Z,11.96
2022-11-12T10:54:31.051Z,11.99
2022-11-12T10:56:27.362Z,11.99
2022-11-12T10:58:21.070Z,12.03
2022-11-12T11:00:20.360Z,12.07
2022-11-12T11:02:19.114Z,12.07
2022-11-12T11:04:22.066Z,12.09
2022-11-12T11:06:24.177Z,12.12
2022-11-12T11:08:16.192Z,12.12
2022-11-12T11:10:24.874Z,12.18
2022-11-12T11:12:24.975Z,12.27
2022-11-12T11:14:29.750Z,12.29
2022-11-12T11:16:23.639Z,12.31
2022-11-12T11:18:15.875Z,12.33
2022-11-12T11:20:17.906Z,12.29
2022-11-12T11:22:38.639Z,12.41
2022-11-12T11:24:38.215Z,12.45
2022-11-12T11:26:39.137Z,12.50
2022-11-12T11:28:39.042Z,12.54
2022-11-12T11:30:31.026Z,12.58
2022-11-12T11:32:46.726Z,12.60
2022-11-12T11:34:45.549Z,12.68
2022-11-12T11:36:45.286Z,12.72
2022-11-12T11:38:50.809Z,12.79
2022-11-12T11:40:52.105Z,12.80
2022-11-12T11:43:15.706Z,12.84
2022-11-12T11:45:16.481Z,12.84
2022-11-12T11:47:27.687Z,12.80
2022-11-12T11:49:51.435Z,12.78
2022-11-12T11:51:54.262Z,12.76
2022-11-12T11:53:59.457Z,12.74
2022-11-12T11:55:56.489Z,12.65
2022-11-12T11:57:59.656Z,12.59
2022-11-12T12:00:05.719Z,12.57
2022-11-12T12:02:23.873Z,12.56
2022-11-12T12:04:38.237Z,12.62
2022-11-12T12:06:32.212Z,12.68
2022-11-12T12:08:33.942Z,12.72
2022-11-12T12:11:06.417Z,12.74
2022-11-12T12:13:01.722Z,12.84
2022-11-12T12:15:06.643Z,12.88
2022-11-12T12:17:08.518Z,12.87
2022-11-12T12:19:08.372Z,12.90
2022-11-12T12:21:07.369Z,12.91
2022-11-12T12:23:04.081Z,12.87
2022-11-12T12:25:00.276Z,12.86
2022-11-12T12:26:57.552Z,12.84
2022-11-12T12:28:54.560Z,12.64
2022-11-12T12:30:50.652Z,12.62
2022-11-12T12:32:48.425Z,12.50
2022-11-12T12:34:44.251Z,12.37
2022-11-12T12:36:40.213Z,12.44
2022-11-12T12:38:42.177Z,12.39
2022-11-12T12:40:36.804Z,12.31
2022-11-12T12:42:37.601Z,12.36
2022-11-12T12:44:49.827Z,12.39
2022-11-12T12:46:44.306Z,12.37
2022-11-12T12:48:41.721Z,12.28
2022-11-12T12:50:35.101Z,12.11
2022-11-12T12:52:26.922Z,12.09
2022-11-12T12:54:56.515Z,12.19
2022-11-12T12:56:50.359Z,12.23
2022-11-12T12:58:46.981Z,12.30
2022-11-12T13:00:41.078Z,12.37
2022-11-12T13:02:39.445Z,12.31
2022-11-12T13:04:53.192Z,12.17
2022-11-12T13:06:55.117Z,12.05
2022-11-12T13:08:47.358Z,12.02
2022-11-12T13:10:50.457Z,12.14
2022-11-12T13:13:06.611Z,12.14
2022-11-12T13:15:17.902Z,12.12
2022-11-12T13:17:12.328Z,12.10
2022-11-12T13:19:04.384Z,12.16
2022-11-12T13:21:10.739Z,12.16
2022-11-12T13:23:03.214Z,12.20
2022-11-12T13:25:05.573Z,12.13
2022-11-12T13:26:58.897Z,12.08
2022-11-12T13:29:22.767Z,11.98
2022-11-12T13:31:30.466Z,11.93
2022-11-12T13:33:27.933Z,11.94
2022-11-12T13:35:31.318Z,11.87
2022-11-12T13:37:24.626Z,11.75
2022-11-12T13:39:19.679Z,11.76
2022-11-12T13:41:17.380Z,11.63
2022-11-12T13:43:18.652Z,11.60
2022-11-12T13:45:13.526Z,11.52
2022-11-12T13:47:06.643Z,11.48
2022-11-12T13:49:02.260Z,11.50
2022-11-12T13:50:57.536Z,11.44
2022-11-12T13:52:49.890Z,11.41
2022-11-12T13:54:41.952Z,11.44
2022-11-12T13:56:36.168Z,11.44
2022-11-12T13:58:30.090Z,11.43
2022-11-12T14:00:25.098Z,11.43
2022-11-12T14:02:23.957Z,11.43
2022-11-12T14:04:18.137Z,11.43
2022-11-12T14:06:17.981Z,11.44
2022-11-12T14:08:33.715Z,11.40
2022-11-12T14:10:35.990Z,11.40
2022-11-12T14:12:53.811Z,11.39
2022-11-12T14:15:04.239Z,11.41
2022-11-12T14:17:10.228Z,11.48
2022-11-12T14:19:36.812Z,11.53
2022-11-12T14:21:28.894Z,11.56
2022-11-12T14:23:25.200Z,11.58
2022-11-12T14:25:21.057Z,11.64
2022-11-12T14:27:35.762Z,11.70
2022-11-12T14:29:34.145Z,11.69
2022-11-12T14:31:27.595Z,11.70
2022-11-12T14:33:22.049Z,11.71
2022-11-12T14:35:34.636Z,11.72
2022-11-12T14:37:42.852Z,11.72
2022-11-12T14:39:35.634Z,11.71
2022-11-12T14:41:33.885Z,11.76
2022-11-12T14:43:36.418Z,11.75
2022-11-12T14:45:32.588Z,11.69
2022-11-12T14:47:27.466Z,11.66
2022-11-12T14:49:23.369Z,11.62
2022-11-12T14:51:17.503Z,11.63
2022-11-12T14:53:16.542Z,11.61
2022-11-12T14:55:14.155Z,11.57
2022-11-12T14:57:06.138Z,11.61
2022-11-12T14:58:58.048Z,11.61
2022-11-12T15:00:51.642Z,11.62
2022-11-12T15:02:57.425Z,11.64
2022-11-12T15:04:55.901Z,11.67
2022-11-12T15:06:56.346Z,11.67
2022-11-12T15:08:58.743Z,11.69
2022-11-12T15:10:50.884Z,11.71
2022-11-12T15:12:42.977Z,11.70
2022-11-12T15:14:35.668Z,11.68
2022-11-12T15:16:29.709Z,11.59
2022-11-12T15:18:24.912Z,11.61
2022-11-12T15:20:18.955Z,11.58
2022-11-12T15:22:22.230Z,11.57
2022-11-12T15:24:19.889Z,11.52
2022-11-12T15:26:17.095Z,11.53
2022-11-12T15:28:22.390Z,11.57
2022-11-12T15:30:23.555Z,11.52
2022-11-12T15:32:34.663Z,11.49
2022-11-12T15:34:48.213Z,11.35
2022-11-12T15:36:42.757Z,11.35
2022-11-12T15:38:38.439Z,11.32
2022-11-12T15:40:32.199Z,11.34
2022-11-12T15:42:29.186Z,11.34
2022-11-12T15:44:21.189Z,11.38
2022-11-12T15:46:15.575Z,11.36
2022-11-12T15:48:10.681Z,11.33
2022-11-12T15:50:15.676Z,11.35
2022-11-12T15:52:07.737Z,11.35
2022-11-12T15:54:01.051Z,11.36
2022-11-12T15:55:53.650Z,11.37
2022-11-12T15:57:49.455Z,11.39
2022-11-12T15:59:42.207Z,11.38
2022-11-12T16:01:34.448Z,11.35
2022-11-12T16:03:26.558Z,11.33
2022-11-12T16:05:20.116Z,11.28
2022-11-12T16:07:11.843Z,11.26
2022-11-12T16:09:05.431Z,11.27
2022-11-12T16:10:57.187Z,11.29
2022-11-12T16:12:49.503Z,11.32
2022-11-12T16:14:41.822Z,11.32
2022-11-12T16:16:34.443Z,11.25
2022-11-12T16:18:26.163Z,11.23
2022-11-12T16:20:21.362Z,11.17
2022-11-12T16:22:13.743Z,11.15
2022-11-12T16:24:08.442Z,11.12
2022-11-12T16:26:02.576Z,11.11
2022-11-12T16:27:56.080Z,11.15
2022-11-12T16:29:47.873Z,11.14
2022-11-12T16:31:39.585Z,11.13
2022-11-12T16:33:31.692Z,11.14
2022-11-12T16:35:23.869Z,11.13
2022-11-12T16:37:16.184Z,11.11
2022-11-12T16:39:12.941Z,11.11
2022-11-12T16:41:04.664Z,11.07
2022-11-12T16:42:56.776Z,11.10
2022-11-12T16:44:48.492Z,11.16
2022-11-12T16:46:41.313Z,11.15
2022-11-12T16:48:33.468Z,11.20
2022-11-12T16:50:27.648Z,11.18
2022-11-12T16:52:19.930Z,11.18
2022-11-12T16:54:12.836Z,11.19
2022-11-12T16:56:05.179Z,11.19
2022-11-12T16:57:57.032Z,11.18
2022-11-12T16:59:48.531Z,11.12
2022-11-12T17:01:40.209Z,11.09
2022-11-12T17:03:32.198Z,11.18
2022-11-12T17:05:26.424Z,11.13
2022-11-12T17:07:18.196Z,11.21
2022-11-12T17:09:13.651Z,11.25
2022-11-12T17:11:10.224Z,11.29
2022-11-12T17:13:01.821Z,11.31
2022-11-12T17:14:54.061Z,11.26
2022-11-12T17:16:46.457Z,11.24
2022-11-12T17:18:38.782Z,11.24
2022-11-12T17:20:31.975Z,11.22
2022-11-12T17:22:24.551Z,11.16
2022-11-12T17:24:18.407Z,11.10
2022-11-12T17:26:13.401Z,11.04
2022-11-12T17:28:05.439Z,11.05
2022-11-12T17:29:57.065Z,11.07
2022-11-12T17:31:50.091Z,11.01
2022-11-12T17:33:44.120Z,11.00
2022-11-12T17:35:35.861Z,10.95
2022-11-12T17:37:28.239Z,11.06
2022-11-12T17:39:21.153Z,11.11
2022-11-12T17:41:13.477Z,11.09
2022-11-12T17:43:05.637Z,11.13
2022-11-12T17:44:57.803Z,11.11
2022-11-12T17:46:50.530Z,11.12
2022-11-12T17:48:43.233Z,11.16
2022-11-12T17:50:35.439Z,11.19
2022-11-12T17:52:27.560Z,11.22
2022-11-12T17:54:25.108Z,11.08
2022-11-12T17:56:18.946Z,11.04
2022-11-12T17:58:10.934Z,11.13
2022-11-12T18:00:02.530Z,11.12
2022-11-12T18:01:54.404Z,11.16
2022-11-12T18:03:50.271Z,11.19
2022-11-12T18:05:42.029Z,11.19
2022-11-12T18:07:34.556Z,11.20
2022-11-12T18:09:28.888Z,11.16
2022-11-12T18:11:21.094Z,11.12
2022-11-12T18:13:13.016Z,11.14
2022-11-12T18:15:05.289Z,11.14
2022-11-12T18:17:01.879Z,11.14
2022-11-12T18:18:55.527Z,11.16
2022-11-12T18:20:47.465Z,11.17
2022-11-12T18:22:44.726Z,11.20
2022-11-12T18:24:38.345Z,11.27
2022-11-12T18:26:30.198Z,11.25
2022-11-12T18:28:22.577Z,11.24
2022-11-12T18:30:19.149Z,11.32
2022-11-12T18:32:11.480Z,11.31
2022-11-12T18:34:03.227Z,11.19
2022-11-12T18:36:02.454Z,11.20
2022-11-12T18:37:54.204Z,11.21
2022-11-12T18:39:47.759Z,11.21
2022-11-12T18:41:39.785Z,11.22
2022-11-12T18:43:31.901Z,11.23
2022-11-12T18:45:24.168Z,11.26
2022-11-12T18:47:16.501Z,11.23
2022-11-12T18:49:08.209Z,11.23
2022-11-12T18:51:02.998Z,11.26
2022-11-12T18:52:55.035Z,11.25
2022-11-12T18:54:48.582Z,11.23
2022-11-12T18:56:42.765Z,11.18
2022-11-12T18:58:35.764Z,11.15
2022-11-12T19:00:30.062Z,11.10
2022-11-12T19:02:22.204Z,11.07
2022-11-12T19:04:14.046Z,11.09
2022-11-12T19:06:08.018Z,11.11
2022-11-12T19:08:00.272Z,11.11
2022-11-12T19:09:53.283Z,11.03
2022-11-12T19:11:45.251Z,11.02
2022-11-12T19:13:37.300Z,11.04
2022-11-12T19:15:29.403Z,11.11
2022-11-12T19:17:21.781Z,11.13
2022-11-12T19:19:15.328Z,11.14
2022-11-12T19:21:08.601Z,11.13
2022-11-12T19:23:01.299Z,11.06
2022-11-12T19:24:54.881Z,11.04
2022-11-12T19:26:49.044Z,11.08
2022-11-12T19:28:41.574Z,11.05
2022-11-12T19:30:33.982Z,11.00
2022-11-12T19:32:25.811Z,11.06
2022-11-12T19:34:18.332Z,11.10
2022-11-12T19:36:13.666Z,11.09
2022-11-12T19:38:05.167Z,11.08
2022-11-12T19:39:58.376Z,11.10
2022-11-12T19:41:50.283Z,11.08
2022-11-12T19:43:42.132Z,11.10
2022-11-12T19:45:33.819Z,11.09
2022-11-12T19:47:25.976Z,11.07
2022-11-12T19:49:17.952Z,11.05
2022-11-12T19:51:12.334Z,11.03
2022-11-12T19:53:04.816Z,10.99
2022-11-12T19:54:58.311Z,10.99
2022-11-12T19:56:50.460Z,11.04
2022-11-12T19:58:46.544Z,11.06
2022-11-12T20:00:38.368Z,11.04
2022-11-12T20:02:30.703Z,10.97
2022-11-12T20:04:24.332Z,11.11
2022-11-12T20:06:18.179Z,11.13
2022-11-12T20:08:10.826Z,11.12
2022-11-12T20:10:04.137Z,11.09
2022-11-12T20:11:55.972Z,11.12
2022-11-12T20:13:47.908Z,11.14
2022-11-12T20:15:39.979Z,11.15
2022-11-12T20:17:33.383Z,11.13
2022-11-12T20:19:26.295Z,11.13
2022-11-12T20:21:18.566Z,11.17
2022-11-12T20:23:10.340Z,11.18
2022-11-12T20:25:04.041Z,11.16
2022-11-12T20:26:55.669Z,11.16
2022-11-12T20:28:47.860Z,11.14
2022-11-12T20:30:39.875Z,11.10
2022-11-12T20:32:31.743Z,11.08
2022-11-12T20:34:23.171Z,11.17
2022-11-12T20:36:16.555Z,11.14
2022-11-12T20:38:08.750Z,11.20
2022-11-12T20:40:00.761Z,11.21
2022-11-12T20:41:54.356Z,11.24
2022-11-12T20:43:46.485Z,11.21
2022-11-12T20:45:38.349Z,11.20
2022-11-12T20:47:30.517Z,11.25
2022-11-12T20:49:22.922Z,11.25
2022-11-12T20:51:25.711Z,11.25
2022-11-12T20:53:18.093Z,11.19
2022-11-12T20:55:10.509Z,11.25
2022-11-12T20:57:03.545Z,11.22
2022-11-12T20:58:55.783Z,11.19
2022-11-12T21:00:47.987Z,11.17
2022-11-12T21:02:39.945Z,11.16
2022-11-12T21:04:32.088Z,11.15
2022-11-12T21:06:26.448Z,11.14
2022-11-12T21:08:18.334Z,11.16
2022-11-12T21:10:10.946Z,11.10
2022-11-12T21:12:05.042Z,11.11
2022-11-12T21:13:56.588Z,11.14
2022-11-12T21:15:48.753Z,11.17
2022-11-12T21:17:40.665Z,11.18
2022-11-12T21:19:32.689Z,11.15
2022-11-12T21:21:24.294Z,11.16
2022-11-12T21:23:15.952Z,11.13
2022-11-12T21:25:08.614Z,11.12
2022-11-12T21:27:00.801Z,11.11
2022-11-12T21:28:55.623Z,11.14
2022-11-12T21:30:47.348Z,11.07
2022-11-12T21:32:39.543Z,11.05
2022-11-12T21:34:31.014Z,11.02
2022-11-12T21:36:23.479Z,10.96
2022-11-12T21:38:15.478Z,10.93
2022-11-12T21:40:09.280Z,10.90
2022-11-12T21:42:00.706Z,10.90
2022-11-12T21:43:54.869Z,10.87
2022-11-12T21:45:47.467Z,10.88
2022-11-12T21:47:39.596Z,10.84
2022-11-12T21:49:31.682Z,10.79
2022-11-12T21:51:25.281Z,10.81
2022-11-12T21:53:17.322Z,10.82
2022-11-12T21:55:09.784Z,10.84
2022-11-12T21:57:01.463Z,10.89
2022-11-12T21:58:59.328Z,10.90
2022-11-12T22:00:50.924Z,10.93
2022-11-12T22:02:43.068Z,10.94
2022-11-12T22:04:34.908Z,10.92
2022-11-12T22:06:28.697Z,10.86
2022-11-12T22:08:20.347Z,10.83
2022-11-12T22:10:12.248Z,10.82
2022-11-12T22:12:05.336Z,10.81
2022-11-12T22:13:58.343Z,10.77
2022-11-12T22:15:51.033Z,10.77
2022-11-12T22:17:42.740Z,10.77
2022-11-12T22:19:35.254Z,10.76
2022-11-12T22:21:28.578Z,10.65
2022-11-12T22:23:20.369Z,10.71
2022-11-12T22:25:12.308Z,10.71
2022-11-12T22:27:05.588Z,10.68
2022-11-12T22:28:59.942Z,10.69
2022-11-12T22:30:52.060Z,10.68
2022-11-12T22:32:43.916Z,10.70
2022-11-12T22:34:36.193Z,10.72
2022-11-12T22:36:29.849Z,10.74
2022-11-12T22:38:21.403Z,10.72
2022-11-12T22:40:13.880Z,10.75
2022-11-12T22:42:06.012Z,10.77
2022-11-12T22:44:00.846Z,10.74
2022-11-12T22:45:52.565Z,10.71
2022-11-12T22:47:44.536Z,10.74
2022-11-12T22:49:36.369Z,10.77
2022-11-12T22:51:30.236Z,10.80
2022-11-12T22:53:22.176Z,10.82
2022-11-12T22:55:13.963Z,10.83
2022-11-12T22:57:05.771Z,10.84
2022-11-12T22:58:59.375Z,10.78
2022-11-12T23:00:51.239Z,10.67
2022-11-12T23:02:47.393Z,10.66
2022-11-12T23:04:39.319Z,10.64
2022-11-12T23:06:32.485Z,10.63
2022-11-12T23:08:24.523Z,10.59
2022-11-12T23:10:16.438Z,10.53
2022-11-12T23:12:08.177Z,10.55
2022-11-12T23:14:01.532Z,10.57
2022-11-12T23:15:53.641Z,10.57
2022-11-12T23:17:45.380Z,10.57
2022-11-12T23:19:36.865Z,10.60
2022-11-12T23:21:30.918Z,10.61
2022-11-12T23:23:22.362Z,10.60
2022-11-12T23:25:14.182Z,10.63
2022-11-12T23:27:06.271Z,10.65
2022-11-12T23:28:58.242Z,10.69
2022-11-12T23:30:52.010Z,10.66
2022-11-12T23:32:44.051Z,10.67
2022-11-12T23:34:35.617Z,10.63
2022-11-12T23:36:28.817Z,10.71
2022-11-12T23:38:20.896Z,10.80
2022-11-12T23:40:12.808Z,10.81
2022-11-12T23:42:04.619Z,10.82
2022-11-12T23:43:57.824Z,10.76
2022-11-12T23:45:52.131Z,10.68
2022-11-12T23:47:44.115Z,10.74
2022-11-12T23:49:35.590Z,10.72
2022-11-12T23:51:27.167Z,10.74
2022-11-12T23:53:19.686Z,10.74
2022-11-12T23:55:11.612Z,10.72
2022-11-12T23:57:03.186Z,10.74
2022-11-12T23:58:55.306Z,10.75
